Time;durP1;ratioP1;P1;durP2;ratioP2;P2;SDS_P1;SDS_P2;PMS_P1;PMS_P2;Temp;Humidity;BMP_temperature;BMP_pressure;BME280_temperature;BME280_humidity;BME280_pressure;Samples;Min_cycle;Max_cycle;Signal;HPM_P1;HPM_P2
2022/01/06 00:00:07;;;;;;;5.18;1.90;;;;;;;22.69;16.64;97027.47;4967178;28;20027;-76
2022/01/06 00:02:33;;;;;;;3.70;1.65;;;;;;;22.52;17.16;97028.81;4972187;28;20031;-76
2022/01/06 00:04:59;;;;;;;2.80;1.73;;;;;;;22.86;16.91;97030.91;4971391;28;20533;-76
2022/01/06 00:07:27;;;;;;;3.67;1.30;;;;;;;23.17;16.82;97025.47;4969138;28;20035;-76
2022/01/06 00:09:53;;;;;;;2.13;1.30;;;;;;;22.94;16.42;97023.84;4972773;28;20063;-76
2022/01/06 00:12:24;;;;;;;2.47;1.42;;;;;;;23.15;16.81;97023.09;4971216;28;20039;-76
2022/01/06 00:15:01;;;;;;;2.17;1.52;;;;;;;23.68;16.15;97021.22;4972769;28;20561;-76
2022/01/06 00:17:58;;;;;;;3.58;1.08;;;;;;;23.87;16.22;97017.31;4972516;28;20097;-75
2022/01/06 00:26:00;;;;;;;2.15;0.93;;;;;;;22.94;16.90;97012.63;4969634;28;20062;-76
2022/01/06 00:28:27;;;;;;;1.63;0.70;;;;;;;23.46;16.39;97014.84;4970696;28;20046;-76
2022/01/06 00:30:53;;;;;;;2.70;0.90;;;;;;;23.62;16.41;97027.88;4979730;28;20046;-76
2022/01/06 00:33:20;;;;;;;2.22;0.77;;;;;;;23.67;16.35;97030.09;4974102;28;20030;-75
2022/01/06 00:35:46;;;;;;;2.80;1.33;;;;;;;23.62;16.14;97039.84;4966640;28;20079;-75
2022/01/06 00:38:12;;;;;;;2.30;1.15;;;;;;;23.42;16.32;97039.41;4957843;29;20024;-76
2022/01/06 00:40:39;;;;;;;7.85;1.20;;;;;;;23.55;16.08;97045.72;4961051;28;20038;-75
2022/01/06 00:43:07;;;;;;;3.05;1.10;;;;;;;23.18;16.39;97046.63;4972009;28;20405;-76
2022/01/06 00:45:36;;;;;;;3.10;0.88;;;;;;;23.09;16.82;97047.31;4969131;28;20039;-75
2022/01/06 00:48:02;;;;;;;3.13;0.85;;;;;;;23.42;16.61;97042.19;4969921;28;20182;-75
2022/01/06 00:50:28;;;;;;;1.38;0.70;;;;;;;23.25;16.72;97049.16;4975421;28;20402;-75
2022/01/06 00:52:55;;;;;;;2.20;1.10;;;;;;;23.13;16.85;97053.56;4973257;28;20046;-75
2022/01/06 00:55:21;;;;;;;4.85;1.30;;;;;;;23.31;16.71;97047.38;4976088;28;20483;-76
2022/01/06 00:57:47;;;;;;;2.90;1.33;;;;;;;22.82;16.97;97049.06;4972229;28;20498;-76
2022/01/06 01:00:14;;;;;;;1.58;1.00;;;;;;;23.07;16.88;97038.59;4965863;28;20046;-76
2022/01/06 01:02:40;;;;;;;1.98;0.75;;;;;;;22.89;16.91;97043.22;4971104;28;20051;-76
2022/01/06 01:05:06;;;;;;;3.05;1.17;;;;;;;23.02;16.94;97036.38;4974128;28;20039;-75
2022/01/06 01:07:32;;;;;;;1.83;0.93;;;;;;;23.53;16.87;97037.00;4975887;28;20035;-75
2022/01/06 01:09:58;;;;;;;1.13;1.00;;;;;;;23.75;16.39;97035.00;4970557;28;20039;-76
2022/01/06 01:12:26;;;;;;;2.25;1.15;;;;;;;24.08;16.24;97035.38;4973133;28;20043;-76
2022/01/06 01:15:06;;;;;;;1.83;1.35;;;;;;;24.13;15.83;97036.78;4956319;28;20031;-76
2022/01/06 01:17:32;;;;;;;1.73;0.70;;;;;;;24.48;15.82;97038.22;4965224;28;20043;-76
2022/01/06 01:19:59;;;;;;;0.60;0.60;;;;;;;24.51;15.65;97035.25;4970157;28;20124;-76
2022/01/06 01:22:25;;;;;;;2.10;0.60;;;;;;;24.66;15.22;97041.06;4970608;28;20038;-76
2022/01/06 01:24:52;;;;;;;1.23;0.63;;;;;;;24.64;15.55;97035.91;4959798;28;20035;-75
2022/01/06 01:27:21;;;;;;;1.38;0.95;;;;;;;23.97;16.04;97044.16;4974048;28;20390;-76
2022/01/06 01:29:58;;;;;;;1.52;0.52;;;;;;;23.88;16.25;97037.69;4973894;28;20047;-76
2022/01/06 01:32:30;;;;;;;1.67;0.77;;;;;;;23.77;16.13;97031.72;4973080;28;20034;-76
2022/01/06 01:35:00;;;;;;;1.30;0.60;;;;;;;23.97;16.14;97035.72;4973586;28;20039;-76
2022/01/06 01:37:27;;;;;;;2.65;0.60;;;;;;;24.36;15.68;97033.47;4972168;28;20031;-75
2022/01/06 01:39:53;;;;;;;2.95;1.27;;;;;;;24.61;15.74;97025.63;4971597;28;20030;-76
2022/01/06 01:42:19;;;;;;;4.45;1.67;;;;;;;24.62;15.48;97027.16;4973724;28;20042;-76
2022/01/06 01:44:47;;;;;;;2.67;1.73;;;;;;;24.44;15.62;97029.91;4971163;28;20099;-76
2022/01/06 01:47:15;;;;;;;1.42;1.10;;;;;;;24.38;15.77;97034.59;4971909;28;20429;-76
2022/01/06 01:49:51;;;;;;;2.55;1.05;;;;;;;24.31;15.57;97028.47;4972679;28;20058;-76
2022/01/06 01:52:17;;;;;;;2.20;0.85;;;;;;;23.63;16.05;97035.81;4972270;28;20057;-76
2022/01/06 01:54:44;;;;;;;1.40;0.75;;;;;;;23.77;16.14;97029.69;4973442;28;20043;-75
2022/01/06 01:57:10;;;;;;;1.30;0.70;;;;;;;23.84;16.06;97021.03;4972288;28;20095;-76
2022/01/06 01:59:36;;;;;;;1.55;0.70;;;;;;;23.98;15.99;97023.28;4973813;28;20073;-76
2022/01/06 02:02:02;;;;;;;1.15;0.55;;;;;;;24.13;15.77;97029.16;4970639;28;20063;-75
2022/01/06 02:04:28;;;;;;;0.70;0.40;;;;;;;24.21;15.85;97024.84;4969714;28;20061;-76
2022/01/06 02:06:54;;;;;;;3.58;0.63;;;;;;;24.25;15.40;97033.13;4972305;28;20027;-76
2022/01/06 02:09:20;;;;;;;0.90;0.60;;;;;;;24.20;15.50;97033.72;4973881;28;20458;-76
2022/01/06 02:11:46;;;;;;;1.85;0.40;;;;;;;23.72;16.01;97021.88;4958615;28;20039;-75
2022/01/06 02:14:12;;;;;;;3.13;0.52;;;;;;;23.64;16.19;97036.63;4968445;28;20047;-76
2022/01/06 02:16:38;;;;;;;2.42;0.68;;;;;;;23.84;15.91;97051.06;4973887;28;20562;-76
2022/01/06 02:19:05;;;;;;;3.35;0.73;;;;;;;23.86;15.71;97051.41;4973863;28;20039;-75
2022/01/06 02:21:31;;;;;;;1.02;0.52;;;;;;;23.33;16.01;97044.91;4968453;28;20478;-75
2022/01/06 02:23:57;;;;;;;0.75;0.43;;;;;;;23.22;16.27;97048.06;4971819;28;20043;-75
2022/01/06 02:26:23;;;;;;;0.47;0.30;;;;;;;23.32;16.24;97049.72;4973591;28;20042;-76
2022/01/06 02:28:49;;;;;;;0.68;0.30;;;;;;;23.37;16.47;97059.59;4974280;28;20051;-76
2022/01/06 02:31:15;;;;;;;1.05;0.60;;;;;;;23.27;16.28;97057.91;4970825;28;20438;-76
2022/01/06 02:33:41;;;;;;;2.33;0.73;;;;;;;23.15;16.37;97055.94;4973098;28;20041;-76
2022/01/06 02:36:07;;;;;;;0.82;0.50;;;;;;;22.68;16.48;97059.47;4966488;28;20059;-75
2022/01/06 02:38:34;;;;;;;0.43;0.43;;;;;;;22.90;16.46;97055.97;4967080;28;20471;-75
2022/01/06 02:41:01;;;;;;;1.45;0.50;;;;;;;22.97;16.36;97055.75;4970830;28;20219;-75
2022/01/06 02:43:29;;;;;;;1.00;0.40;;;;;;;23.23;16.26;97055.25;4971656;28;20034;-76
2022/01/06 02:45:55;;;;;;;2.28;0.60;;;;;;;23.02;16.35;97047.56;4971775;28;20026;-76
2022/01/06 02:48:21;;;;;;;0.98;0.40;;;;;;;22.53;16.98;97040.78;4971736;28;20512;-75
2022/01/06 02:50:49;;;;;;;1.65;0.52;;;;;;;22.05;17.64;97036.31;4969433;28;20030;-75
2022/01/06 02:53:16;;;;;;;1.25;0.47;;;;;;;22.91;16.82;97033.16;4969125;28;20756;-76
2022/01/06 02:55:53;;;;;;;1.13;0.50;;;;;;;23.00;16.52;97035.25;4970131;28;20039;-76
2022/01/06 02:58:21;;;;;;;0.82;0.50;;;;;;;22.78;16.85;97040.03;4977579;28;20023;-76
2022/01/06 03:00:47;;;;;;;1.85;0.40;;;;;;;23.32;16.55;97040.53;4970743;28;20053;-76
2022/01/06 03:03:13;;;;;;;0.45;0.40;;;;;;;23.39;16.41;97040.31;4967392;28;20030;-76
2022/01/06 03:05:39;;;;;;;0.65;0.57;;;;;;;23.55;16.30;97037.31;4971029;28;20037;-76
2022/01/06 03:08:06;;;;;;;2.70;0.60;;;;;;;23.55;16.34;97045.72;4972268;28;20122;-76
2022/01/06 03:10:36;;;;;;;1.58;0.50;;;;;;;23.53;16.02;97041.81;4970122;28;20030;-76
2022/01/06 03:13:03;;;;;;;1.98;0.50;;;;;;;23.35;15.98;97040.44;4970435;28;20039;-76
2022/01/06 03:15:29;;;;;;;1.80;0.50;;;;;;;23.18;16.44;97043.81;4972150;28;20034;-75
2022/01/06 03:17:57;;;;;;;1.15;0.55;;;;;;;22.74;16.77;97036.53;4971720;28;20039;-76
2022/01/06 03:20:26;;;;;;;1.45;0.80;;;;;;;22.72;17.09;97037.00;4970989;28;20483;-76
2022/01/06 03:22:53;;;;;;;2.53;1.02;;;;;;;21.99;17.60;97033.28;4968747;28;20070;-76
2022/01/06 03:25:19;;;;;;;3.55;0.60;;;;;;;21.70;17.83;97031.75;4971138;28;20031;-75
2022/01/06 03:27:46;;;;;;;1.70;0.50;;;;;;;22.37;17.35;97044.47;4969104;28;20049;-76
2022/01/06 03:30:15;;;;;;;0.98;0.47;;;;;;;22.82;16.82;97035.88;4963621;28;20494;-76
2022/01/06 03:32:42;;;;;;;2.22;0.40;;;;;;;22.45;16.94;97042.25;4954236;28;20027;-76
2022/01/06 03:35:12;;;;;;;1.45;0.52;;;;;;;22.38;17.41;97048.06;4952672;29;20040;-76
2022/01/06 03:37:39;;;;;;;0.90;0.50;;;;;;;22.06;17.71;97048.25;4945379;28;20065;-75
2022/01/06 03:40:06;;;;;;;0.45;0.38;;;;;;;22.18;17.52;97050.28;4954510;28;20035;-76
2022/01/06 03:42:33;;;;;;;2.33;0.50;;;;;;;22.08;18.02;97052.16;4952779;28;20118;-76
2022/01/06 03:44:59;;;;;;;0.93;0.43;;;;;;;22.90;17.03;97047.59;4951552;29;20066;-75
2022/01/06 03:47:26;;;;;;;3.85;0.88;;;;;;;22.53;16.88;97054.75;4953194;28;20135;-75
2022/01/06 03:49:52;;;;;;;0.65;0.50;;;;;;;23.35;16.70;97062.84;4955890;28;20030;-76
2022/01/06 03:52:18;;;;;;;2.63;0.60;;;;;;;23.71;16.39;97053.94;4953961;29;20059;-76
2022/01/06 03:54:44;;;;;;;2.80;0.85;;;;;;;24.09;16.06;97052.97;4955177;28;20085;-76
2022/01/06 03:57:10;;;;;;;1.10;0.35;;;;;;;24.32;16.02;97050.44;4957538;29;20035;-75
2022/01/06 03:59:36;;;;;;;0.98;0.50;;;;;;;24.56;15.66;97048.69;4957174;29;20058;-77
2022/01/06 04:02:03;;;;;;;0.75;0.45;;;;;;;24.39;15.58;97049.38;4956649;29;20035;-75
2022/01/06 04:04:29;;;;;;;1.75;0.40;;;;;;;24.34;15.60;97047.19;4955870;28;20110;-76
2022/01/06 04:06:55;;;;;;;0.75;0.40;;;;;;;24.25;16.11;97053.53;4957445;29;20028;-76
2022/01/06 04:09:21;;;;;;;1.50;0.70;;;;;;;23.19;16.60;97065.00;4956754;29;20043;-76
2022/01/06 04:11:47;;;;;;;2.05;0.70;;;;;;;23.51;16.83;97056.28;4960027;28;20038;-76
2022/01/06 04:14:13;;;;;;;0.43;0.20;;;;;;;23.73;16.41;97061.91;4955308;28;20039;-76
2022/01/06 04:16:40;;;;;;;4.68;1.30;;;;;;;22.87;16.78;97062.50;4957189;29;20447;-76
2022/01/06 04:19:06;;;;;;;1.00;0.70;;;;;;;23.14;16.90;97068.38;4947505;28;20039;-76
2022/01/06 04:21:33;;;;;;;1.08;0.88;;;;;;;23.13;16.64;97067.56;4954785;28;20576;-76
2022/01/06 04:23:59;;;;;;;3.03;1.05;;;;;;;23.19;16.84;97071.38;4949381;29;20422;-75
2022/01/06 04:26:26;;;;;;;3.95;0.80;;;;;;;23.39;16.52;97076.72;4956183;28;20031;-76
2022/01/06 04:28:52;;;;;;;1.88;0.80;;;;;;;23.72;16.35;97077.94;4954628;28;20122;-76
2022/01/06 04:31:18;;;;;;;1.45;0.40;;;;;;;23.85;16.17;97077.88;4952160;28;20039;-76
2022/01/06 04:33:44;;;;;;;1.25;0.60;;;;;;;23.33;16.57;97073.69;4953390;29;20406;-76
2022/01/06 04:36:10;;;;;;;0.43;0.40;;;;;;;23.80;16.23;97075.66;4955486;28;20163;-76
2022/01/06 04:38:36;;;;;;;0.63;0.45;;;;;;;24.42;15.77;97073.72;4954919;28;20482;-76
2022/01/06 04:41:03;;;;;;;1.63;0.50;;;;;;;24.47;16.21;97078.72;4952240;29;20570;-76
2022/01/06 04:43:30;;;;;;;0.80;0.30;;;;;;;24.58;15.63;97084.69;4952733;29;20176;-76
2022/01/06 04:45:56;;;;;;;0.60;0.40;;;;;;;24.28;15.76;97089.06;4952935;28;20062;-76
2022/01/06 04:48:23;;;;;;;1.85;0.63;;;;;;;24.45;15.93;97084.81;4939987;29;20071;-76
2022/01/06 04:50:49;;;;;;;0.43;0.20;;;;;;;24.84;15.58;97090.91;4956524;29;20118;-76
2022/01/06 04:53:15;;;;;;;0.82;0.57;;;;;;;24.63;15.80;97095.31;4952280;29;20032;-76
2022/01/06 04:55:41;;;;;;;1.17;0.70;;;;;;;24.58;15.45;97093.13;4960077;28;20023;-76
2022/01/06 04:58:07;;;;;;;0.88;0.32;;;;;;;24.29;15.95;97096.25;4945072;29;20067;-76
2022/01/06 05:00:33;;;;;;;0.95;0.40;;;;;;;24.06;15.86;97113.56;4946698;28;20035;-76
2022/01/06 05:02:59;;;;;;;0.63;0.40;;;;;;;23.65;16.42;97114.63;4940391;29;20032;-76
2022/01/06 05:05:25;;;;;;;1.63;0.50;;;;;;;23.50;16.31;97112.78;4954496;29;20035;-76
2022/01/06 05:07:51;;;;;;;2.50;0.77;;;;;;;23.96;16.29;97109.09;4956765;29;20035;-76
2022/01/06 05:10:18;;;;;;;2.25;0.52;;;;;;;24.12;16.30;97108.94;4953880;28;20083;-76
2022/01/06 05:12:45;;;;;;;0.28;0.28;;;;;;;24.43;15.79;97106.16;4949089;29;20035;-76
2022/01/06 05:15:13;;;;;;;0.55;0.50;;;;;;;24.12;15.81;97113.75;4947791;28;20547;-76
2022/01/06 05:17:41;;;;;;;0.40;0.40;;;;;;;23.08;16.99;97115.75;4938421;29;20375;-76
2022/01/06 05:20:08;;;;;;;1.08;0.50;;;;;;;23.44;16.81;97112.56;4952818;29;20047;-76
2022/01/06 05:22:41;;;;;;;1.27;0.50;;;;;;;23.52;16.67;97111.09;4948701;28;20491;-76
2022/01/06 05:25:07;;;;;;;0.93;0.43;;;;;;;23.10;17.16;97106.91;4954315;29;20028;-76
2022/01/06 05:27:33;;;;;;;3.28;0.60;;;;;;;23.36;16.88;97111.25;4949578;28;20052;-76
2022/01/06 05:29:59;;;;;;;0.93;0.30;;;;;;;23.45;16.88;97116.16;4982683;28;20105;-76
2022/01/06 05:32:25;;;;;;;1.63;0.80;;;;;;;22.44;17.46;97107.81;4982480;28;20058;-75
2022/01/06 05:34:51;;;;;;;1.85;0.43;;;;;;;23.17;16.92;97115.88;4973284;28;20027;-76
2022/01/06 05:37:18;;;;;;;0.75;0.30;;;;;;;23.35;16.88;97118.88;4973514;28;20027;-76
2022/01/06 05:39:44;;;;;;;3.03;0.40;;;;;;;23.18;17.15;97122.22;4978829;28;20030;-75
2022/01/06 05:42:13;;;;;;;0.52;0.40;;;;;;;23.54;17.05;97122.63;4976723;28;20041;-76
2022/01/06 05:44:41;;;;;;;1.70;0.65;;;;;;;24.07;16.56;97126.34;4975266;28;20046;-76
2022/01/06 05:47:07;;;;;;;1.00;0.60;;;;;;;23.60;16.60;97126.41;4969278;28;20398;-76
2022/01/06 05:49:34;;;;;;;1.63;0.70;;;;;;;23.43;16.93;97125.03;4981810;28;20045;-76
2022/01/06 05:52:00;;;;;;;5.55;2.38;;;;;;;23.68;16.48;97126.94;4981505;28;20027;-75
2022/01/06 05:54:26;;;;;;;1.63;0.70;;;;;;;23.22;16.76;97122.91;4973212;28;20047;-76
2022/01/06 05:56:53;;;;;;;1.13;0.60;;;;;;;22.41;17.72;97129.06;4972622;28;20561;-76
2022/01/06 05:59:19;;;;;;;2.22;0.80;;;;;;;22.93;17.54;97127.88;4972904;28;20082;-75
2022/01/06 06:01:46;;;;;;;1.92;0.70;;;;;;;22.49;17.57;97127.63;4971452;28;20035;-75
2022/01/06 06:04:12;;;;;;;1.40;0.55;;;;;;;22.66;17.55;97128.34;4971110;28;20058;-76
2022/01/06 06:06:38;;;;;;;1.83;0.85;;;;;;;23.25;17.20;97133.97;4944577;28;20130;-76
2022/01/06 06:09:06;;;;;;;1.63;0.63;;;;;;;21.92;17.83;97136.88;4967869;28;20038;-76
2022/01/06 06:11:32;;;;;;;3.45;1.00;;;;;;;22.29;17.91;97138.22;4971347;28;20501;-76
2022/01/06 06:13:58;;;;;;;3.88;1.33;;;;;;;22.98;17.49;97136.50;4974114;28;20038;-76
2022/01/06 06:16:25;;;;;;;5.72;1.70;;;;;;;22.92;17.47;97143.88;4968707;28;20039;-76
2022/01/06 06:18:51;;;;;;;3.28;1.30;;;;;;;23.39;16.79;97143.94;4971858;28;20035;-75
2022/01/06 06:21:17;;;;;;;2.33;1.00;;;;;;;23.20;17.19;97140.16;4971627;28;20070;-76
2022/01/06 06:23:43;;;;;;;9.20;2.60;;;;;;;23.11;17.29;97144.88;4973796;28;20039;-76
2022/01/06 06:26:09;;;;;;;4.88;1.60;;;;;;;23.63;16.91;97141.53;4970787;28;20034;-76
2022/01/06 06:28:35;;;;;;;1.90;0.80;;;;;;;22.77;17.28;97142.78;4971882;28;20047;-76
2022/01/06 06:31:02;;;;;;;2.95;0.90;;;;;;;23.03;17.00;97151.94;4974005;28;20121;-76
2022/01/06 06:33:28;;;;;;;7.00;2.13;;;;;;;23.58;16.87;97158.91;4973086;28;20031;-76
2022/01/06 06:35:54;;;;;;;2.72;1.10;;;;;;;23.20;17.14;97165.34;4973652;28;20483;-75
2022/01/06 06:38:20;;;;;;;2.65;0.98;;;;;;;23.26;16.90;97160.75;4973617;28;20506;-76
2022/01/06 06:40:47;;;;;;;2.20;0.70;;;;;;;22.95;17.28;97164.59;4972967;28;20052;-76
2022/01/06 06:43:14;;;;;;;1.60;0.70;;;;;;;23.31;17.07;97165.00;4972248;28;20499;-76
2022/01/06 06:45:41;;;;;;;0.98;0.75;;;;;;;22.80;17.13;97155.09;4969446;28;20045;-76
2022/01/06 06:48:07;;;;;;;3.05;0.90;;;;;;;23.51;16.85;97167.56;4974463;28;20109;-76
2022/01/06 06:50:34;;;;;;;2.13;0.82;;;;;;;23.39;16.85;97169.16;4962933;28;20390;-76
2022/01/06 06:53:00;;;;;;;1.33;0.90;;;;;;;23.00;17.31;97167.63;4968485;28;20038;-76
2022/01/06 06:55:26;;;;;;;1.25;0.73;;;;;;;23.60;16.70;97157.22;4963303;28;20101;-76
2022/01/06 06:57:52;;;;;;;1.48;0.80;;;;;;;23.86;16.53;97167.13;4966322;28;20494;-76
2022/01/06 07:00:18;;;;;;;1.42;0.75;;;;;;;23.78;16.43;97171.41;4964175;28;20475;-77
2022/01/06 07:02:44;;;;;;;1.17;0.82;;;;;;;23.88;16.67;97172.25;4959088;28;20035;-77
2022/01/06 07:05:10;;;;;;;2.63;0.90;;;;;;;23.81;16.50;97172.50;4960157;28;20522;-78
2022/01/06 07:07:36;;;;;;;3.20;0.63;;;;;;;24.05;16.64;97174.44;4961655;28;20043;-78
2022/01/06 07:10:03;;;;;;;1.20;1.02;;;;;;;23.89;16.65;97177.44;4972144;28;20062;-78
2022/01/06 07:12:30;;;;;;;1.30;1.00;;;;;;;24.12;16.52;97184.66;4967101;28;20097;-78
2022/01/06 07:14:57;;;;;;;3.08;1.42;;;;;;;23.22;16.96;97181.72;4966139;28;20489;-77
2022/01/06 07:17:23;;;;;;;2.72;1.23;;;;;;;22.94;17.71;97182.63;4957653;28;20102;-78
2022/01/06 07:19:49;;;;;;;4.88;1.67;;;;;;;23.10;17.12;97188.13;4963415;28;20043;-78
2022/01/06 07:22:15;;;;;;;1.77;0.98;;;;;;;23.29;17.23;97198.28;4963300;28;20045;-77
2022/01/06 07:24:41;;;;;;;3.00;1.40;;;;;;;23.18;17.15;97197.84;4963213;28;20514;-78
2022/01/06 07:27:07;;;;;;;2.20;1.35;;;;;;;22.92;17.05;97199.09;4967579;28;20512;-78
2022/01/06 07:29:34;;;;;;;2.08;1.00;;;;;;;23.04;17.47;97206.69;4974020;28;20485;-78
2022/01/06 07:32:00;;;;;;;3.35;1.20;;;;;;;22.94;17.16;97202.22;4965991;28;20035;-78
2022/01/06 07:34:26;;;;;;;2.38;1.65;;;;;;;21.22;19.04;97205.75;4969511;28;20510;-78
2022/01/06 07:36:52;;;;;;;3.78;1.88;;;;;;;20.94;19.59;97211.97;4967928;28;20037;-78
2022/01/06 07:39:18;;;;;;;2.88;1.70;;;;;;;22.15;18.36;97211.31;4966440;28;20055;-77
2022/01/06 07:41:44;;;;;;;2.05;1.50;;;;;;;22.23;18.43;97209.91;4971200;28;20049;-77
2022/01/06 07:44:10;;;;;;;2.70;1.30;;;;;;;21.34;19.07;97222.59;4968157;28;20072;-77
2022/01/06 07:46:37;;;;;;;2.78;1.60;;;;;;;20.33;20.61;97226.44;4973904;28;20502;-78
2022/01/06 07:49:04;;;;;;;4.13;1.40;;;;;;;21.11;20.04;97228.34;4970659;28;20406;-77
2022/01/06 07:51:31;;;;;;;1.17;0.90;;;;;;;21.30;19.69;97229.50;4968045;28;20058;-77
2022/01/06 07:54:01;;;;;;;1.95;0.98;;;;;;;21.10;19.85;97240.72;4964431;28;20031;-77
2022/01/06 07:56:27;;;;;;;2.55;1.10;;;;;;;21.00;19.73;97240.94;4969652;28;20478;-77
2022/01/06 07:58:53;;;;;;;1.30;0.90;;;;;;;20.90;20.18;97236.38;4965518;28;20101;-77
2022/01/06 08:01:20;;;;;;;2.45;1.17;;;;;;;21.37;19.63;97243.28;4964560;28;20049;-77
2022/01/06 08:03:46;;;;;;;3.92;1.08;;;;;;;21.29;19.88;97247.44;4963033;28;20050;-77
2022/01/06 08:06:14;;;;;;;2.47;1.00;;;;;;;21.39;19.52;97248.41;4974248;28;20117;-78
2022/01/06 08:08:40;;;;;;;1.27;1.05;;;;;;;21.08;20.01;97251.53;4969646;28;20035;-77
2022/01/06 08:11:06;;;;;;;1.77;1.10;;;;;;;21.25;20.13;97253.13;4964307;28;20775;-77
2022/01/06 08:13:33;;;;;;;1.75;1.10;;;;;;;21.46;19.90;97249.03;4964850;28;20037;-77
2022/01/06 08:15:59;;;;;;;3.58;1.40;;;;;;;22.57;18.57;97251.25;4964195;28;20458;-77
2022/01/06 08:18:25;;;;;;;3.15;1.00;;;;;;;22.06;19.29;97250.31;4966556;28;20505;-77
2022/01/06 08:20:51;;;;;;;4.55;1.63;;;;;;;22.68;18.62;97246.19;4964334;28;20034;-77
2022/01/06 08:23:17;;;;;;;4.50;1.92;;;;;;;21.06;20.20;97259.56;4984621;28;20118;-77
2022/01/06 08:25:43;;;;;;;4.55;2.17;;;;;;;21.17;20.10;97260.09;4968247;28;20031;-76
2022/01/06 08:28:10;;;;;;;3.08;1.60;;;;;;;21.28;20.02;97263.41;4967736;28;20058;-77
2022/01/06 08:30:36;;;;;;;4.93;1.40;;;;;;;20.98;20.89;97268.50;4967141;28;20039;-77
2022/01/06 08:33:02;;;;;;;3.38;1.48;;;;;;;21.20;20.63;97261.22;4972743;28;20045;-77
2022/01/06 08:35:28;;;;;;;3.78;1.67;;;;;;;20.98;20.78;97274.84;4970343;28;20040;-77
2022/01/06 08:37:55;;;;;;;3.53;1.33;;;;;;;20.87;20.60;97265.94;4972522;28;20050;-77
2022/01/06 08:40:21;;;;;;;5.03;1.50;;;;;;;20.58;21.55;97284.50;4972779;28;20031;-77
2022/01/06 08:42:48;;;;;;;4.00;1.60;;;;;;;20.38;21.81;97283.69;4970429;28;20061;-77
2022/01/06 08:45:16;;;;;;;2.05;1.20;;;;;;;19.56;23.01;97291.91;4977181;28;20031;-77
2022/01/06 08:47:43;;;;;;;3.22;1.50;;;;;;;20.60;21.86;97296.00;4970352;28;20050;-77
2022/01/06 08:50:10;;;;;;;3.45;1.80;;;;;;;19.53;23.09;97295.56;4973781;28;20039;-77
2022/01/06 08:52:37;;;;;;;2.50;1.55;;;;;;;20.87;21.73;97298.63;4973759;28;20479;-77
2022/01/06 08:55:05;;;;;;;4.50;2.33;;;;;;;20.83;21.95;97303.50;4971802;28;20042;-77
2022/01/06 08:57:33;;;;;;;2.65;1.45;;;;;;;20.95;21.94;97298.06;4968028;28;20399;-78
2022/01/06 08:59:59;;;;;;;3.35;1.30;;;;;;;21.71;20.78;97288.31;4962594;28;20039;-77
2022/01/06 09:02:26;;;;;;;3.10;1.60;;;;;;;21.82;20.86;97296.44;4972121;28;20031;-78
2022/01/06 09:04:52;;;;;;;6.70;4.10;;;;;;;22.24;20.35;97300.16;4969221;28;20383;-77
2022/01/06 09:07:18;;;;;;;7.40;3.72;;;;;;;21.18;21.54;97295.19;4969445;28;20117;-77
2022/01/06 09:09:45;;;;;;;3.45;2.70;;;;;;;21.90;20.90;97295.06;4970826;28;20065;-78
2022/01/06 09:12:17;;;;;;;5.72;2.33;;;;;;;22.48;20.19;97293.09;4973201;28;20390;-77
2022/01/06 09:14:46;;;;;;;3.65;1.77;;;;;;;22.33;20.41;97298.31;4972435;28;20034;-78
2022/01/06 09:17:13;;;;;;;5.72;1.48;;;;;;;23.52;19.67;97293.22;4969353;28;20529;-77
2022/01/06 09:19:39;;;;;;;3.00;1.65;;;;;;;23.60;19.32;97297.34;4967589;28;20043;-78
2022/01/06 09:22:05;;;;;;;2.25;1.63;;;;;;;24.12;18.82;97302.44;4974343;28;20039;-77
2022/01/06 09:24:31;;;;;;;2.97;1.23;;;;;;;24.41;18.73;97302.25;4976541;28;20520;-78
2022/01/06 09:26:57;;;;;;;2.97;1.67;;;;;;;24.46;18.19;97305.25;4967794;28;20101;-78
2022/01/06 09:29:23;;;;;;;3.60;1.42;;;;;;;24.94;17.85;97298.28;4970093;28;20038;-77
2022/01/06 09:31:49;;;;;;;2.65;1.42;;;;;;;24.52;18.42;97294.22;4965923;28;20039;-77
2022/01/06 09:34:15;;;;;;;3.00;1.38;;;;;;;24.68;18.28;97300.44;4967269;28;20031;-78
2022/01/06 09:36:42;;;;;;;5.75;1.50;;;;;;;24.64;18.13;97301.81;4968962;28;20521;-78
2022/01/06 09:39:10;;;;;;;3.50;1.80;;;;;;;23.54;19.10;97301.94;4970175;28;20138;-77
2022/01/06 09:41:36;;;;;;;3.28;1.63;;;;;;;23.27;19.11;97307.16;4970870;28;20113;-77
2022/01/06 09:44:03;;;;;;;3.53;1.42;;;;;;;23.12;19.41;97306.84;4964993;28;20042;-77
2022/01/06 09:46:30;;;;;;;3.80;1.65;;;;;;;23.37;19.20;97300.50;4964818;28;20142;-77
2022/01/06 09:48:59;;;;;;;4.20;1.60;;;;;;;23.19;19.16;97309.44;4967476;28;20399;-77
2022/01/06 09:51:27;;;;;;;5.30;2.45;;;;;;;23.26;19.25;97305.63;4965812;28;20454;-77
2022/01/06 09:53:56;;;;;;;2.83;1.65;;;;;;;21.83;20.63;97298.78;4966686;28;20528;-77
2022/01/06 09:56:22;;;;;;;4.68;1.77;;;;;;;22.02;20.43;97303.53;4965731;28;20089;-77
2022/01/06 09:58:48;;;;;;;5.25;1.80;;;;;;;21.99;20.36;97309.97;4967621;28;20038;-78
2022/01/06 10:01:15;;;;;;;4.35;1.67;;;;;;;21.64;20.59;97302.47;4964772;28;20103;-77
2022/01/06 10:03:46;;;;;;;3.20;1.98;;;;;;;21.86;20.58;97305.53;4973088;28;20097;-77
2022/01/06 10:06:16;;;;;;;4.25;1.88;;;;;;;21.09;21.55;97308.16;4966037;28;20023;-77
2022/01/06 10:08:49;;;;;;;4.18;1.83;;;;;;;21.11;21.31;97308.50;4969512;28;20501;-77
2022/01/06 10:11:19;;;;;;;3.55;1.40;;;;;;;21.74;20.56;97306.22;4968380;28;20512;-77
2022/01/06 10:13:55;;;;;;;4.78;1.70;;;;;;;20.60;21.50;97315.53;4971793;28;20081;-77
2022/01/06 10:16:22;;;;;;;6.28;2.00;;;;;;;21.37;21.29;97313.09;4971825;28;20465;-77
2022/01/06 10:19:12;;;;;;;3.05;1.50;;;;;;;20.68;21.66;97319.75;4971130;28;20027;-77
2022/01/06 10:21:41;;;;;;;4.60;1.55;;;;;;;19.63;22.97;97314.09;4972754;28;20038;-77
2022/01/06 10:24:15;;;;;;;2.97;1.50;;;;;;;18.97;23.84;97316.66;4970140;28;20546;-77
2022/01/06 10:26:54;;;;;;;4.05;1.73;;;;;;;19.52;22.31;97311.47;4967851;28;20031;-77
2022/01/06 10:29:21;;;;;;;3.58;1.38;;;;;;;19.69;22.91;97315.19;4965130;28;20051;-77
2022/01/06 10:31:47;;;;;;;3.83;1.48;;;;;;;19.82;21.76;97311.38;4962532;28;20506;-77
2022/01/06 10:34:14;;;;;;;2.78;1.20;;;;;;;18.40;24.60;97314.53;4969018;28;20491;-77
2022/01/06 10:36:41;;;;;;;4.80;2.13;;;;;;;18.48;24.09;97312.50;4965591;28;20054;-77
2022/01/06 10:39:09;;;;;;;5.80;2.00;;;;;;;17.04;27.09;97320.84;4972925;28;20030;-77
2022/01/06 10:41:37;;;;;;;3.67;1.70;;;;;;;18.32;25.02;97317.81;4986081;28;20023;-77
2022/01/06 10:44:05;;;;;;;4.97;1.80;;;;;;;18.98;23.55;97305.09;4956343;28;20039;-77
2022/01/06 10:46:40;;;;;;;4.55;1.58;;;;;;;18.04;25.87;97327.22;4972588;28;20031;-77
2022/01/06 10:49:09;;;;;;;3.97;1.77;;;;;;;17.94;24.67;97306.72;4965605;28;20510;-77
2022/01/06 10:51:38;;;;;;;5.72;1.90;;;;;;;18.61;23.44;97311.53;4969946;28;20038;-77
2022/01/06 10:54:10;;;;;;;4.85;1.90;;;;;;;18.52;24.18;97341.03;4967996;28;20406;-77
2022/01/06 10:56:36;;;;;;;2.10;1.10;;;;;;;16.14;27.79;97365.09;4969748;28;20031;-77
2022/01/06 10:59:02;;;;;;;2.20;1.20;;;;;;;15.30;29.46;97359.53;4975644;28;20027;-77
2022/01/06 11:01:33;;;;;;;3.78;1.25;;;;;;;15.37;29.71;97360.34;4969134;28;20694;-77
2022/01/06 11:04:00;;;;;;;2.15;1.77;;;;;;;16.50;28.13;97358.28;4971156;28;20035;-77
2022/01/06 11:06:26;;;;;;;2.65;1.77;;;;;;;17.26;26.98;97358.38;4967169;28;20454;-76
2022/01/06 11:08:53;;;;;;;2.17;1.58;;;;;;;17.32;26.72;97350.38;4963400;28;20026;-77
2022/01/06 11:11:43;;;;;;;2.50;1.80;;;;;;;17.13;26.89;97357.25;4965724;28;20039;-77
2022/01/06 11:14:16;;;;;;;2.70;1.77;;;;;;;17.77;25.71;97359.59;4963934;28;20124;-77
2022/01/06 11:16:43;;;;;;;2.75;1.60;;;;;;;16.18;28.32;97370.63;4963722;28;20174;-79
2022/01/06 11:19:11;;;;;;;5.45;2.70;;;;;;;16.62;27.07;97362.63;4967527;28;20136;-78
2022/01/06 11:21:41;;;;;;;4.80;2.60;;;;;;;16.12;28.08;97380.53;4964011;28;20804;-78
2022/01/06 11:24:16;;;;;;;4.05;2.58;;;;;;;17.41;26.25;97374.91;4965820;28;20553;-78
2022/01/06 11:27:03;;;;;;;3.05;2.28;;;;;;;17.98;25.42;97364.19;4966217;28;20039;-78
2022/01/06 11:29:34;;;;;;;8.13;2.83;;;;;;;18.35;25.17;97375.34;4969525;28;20050;-78
2022/01/06 11:32:05;;;;;;;4.95;2.60;;;;;;;18.09;25.25;97384.31;4964629;28;20070;-78
2022/01/06 11:34:37;;;;;;;6.05;3.28;;;;;;;17.04;26.66;97379.06;4964718;28;20104;-78
2022/01/06 11:37:12;;;;;;;4.00;2.90;;;;;;;17.39;26.43;97382.84;4965611;28;20384;-78
2022/01/06 11:39:38;;;;;;;8.57;3.42;;;;;;;17.68;25.93;97396.16;4974460;28;20027;-78